sensor_id;sensor_type;location;lat;lon;timestamp;temperature;humidity
16301;DHT22;8258;51.020;4.248;2024-03-08T00:01:39;4.50;99.90
16301;DHT22;8258;51.020;4.248;2024-03-08T00:04:06;4.50;99.90
16301;DHT22;8258;51.020;4.248;2024-03-08T00:06:34;4.50;99.90
16301;DHT22;8258;51.020;4.248;2024-03-08T00:09:01;4.50;99.90
16301;DHT22;8258;51.020;4.248;2024-03-08T00:11:28;4.40;99.90
16301;DHT22;8258;51.020;4.248;2024-03-08T00:13:58;4.40;99.90
16301;DHT22;8258;51.020;4.248;2024-03-08T00:16:25;4.40;99.90
16301;DHT22;8258;51.020;4.248;2024-03-08T00:18:53;4.30;99.90
16301;DHT22;8258;51.020;4.248;2024-03-08T00:21:20;4.30;99.90
16301;DHT22;8258;51.020;4.248;2024-03-08T00:23:47;4.30;99.90
16301;DHT22;8258;51.020;4.248;2024-03-08T00:26:14;4.30;99.90
16301;DHT22;8258;51.020;4.248;2024-03-08T00:28:41;4.30;99.90
16301;DHT22;8258;51.020;4.248;2024-03-08T00:31:10;4.30;99.90
16301;DHT22;8258;51.020;4.248;2024-03-08T00:33:37;4.30;99.90
16301;DHT22;8258;51.020;4.248;2024-03-08T00:36:05;4.20;99.90
16301;DHT22;8258;51.020;4.248;2024-03-08T00:38:33;4.20;99.90
16301;DHT22;8258;51.020;4.248;2024-03-08T00:41:01;4.20;99.90
16301;DHT22;8258;51.020;4.248;2024-03-08T00:43:28;4.20;99.90
16301;DHT22;8258;51.020;4.248;2024-03-08T00:45:55;4.20;99.90
16301;DHT22;8258;51.020;4.248;2024-03-08T00:48:24;4.20;99.90
16301;DHT22;8258;51.020;4.248;2024-03-08T00:50:51;4.20;99.90
16301;DHT22;8258;51.020;4.248;2024-03-08T00:53:19;4.20;99.90
16301;DHT22;8258;51.020;4.248;2024-03-08T00:55:46;4.10;99.90
16301;DHT22;8258;51.020;4.248;2024-03-08T01:29:19;3.90;99.90
16301;DHT22;8258;51.020;4.248;2024-03-08T01:31:46;3.90;99.90
16301;DHT22;8258;51.020;4.248;2024-03-08T01:34:13;3.80;99.90
16301;DHT22;8258;51.020;4.248;2024-03-08T01:36:40;3.80;99.90
16301;DHT22;8258;51.020;4.248;2024-03-08T01:39:07;3.80;99.90
16301;DHT22;8258;51.020;4.248;2024-03-08T01:41:35;3.80;99.90
16301;DHT22;8258;51.020;4.248;2024-03-08T01:44:02;3.80;99.90
16301;DHT22;8258;51.020;4.248;2024-03-08T01:46:31;3.80;99.90
16301;DHT22;8258;51.020;4.248;2024-03-08T01:48:58;3.80;99.90
16301;DHT22;8258;51.020;4.248;2024-03-08T01:51:27;3.70;99.90
16301;DHT22;8258;51.020;4.248;2024-03-08T01:53:56;3.70;99.90
16301;DHT22;8258;51.020;4.248;2024-03-08T01:56:24;3.60;99.90
16301;DHT22;8258;51.020;4.248;2024-03-08T01:58:52;3.60;99.90
16301;DHT22;8258;51.020;4.248;2024-03-08T02:01:19;3.60;99.90
16301;DHT22;8258;51.020;4.248;2024-03-08T02:03:49;3.60;99.90
16301;DHT22;8258;51.020;4.248;2024-03-08T02:06:16;3.60;99.90
16301;DHT22;8258;51.020;4.248;2024-03-08T02:08:44;3.50;99.90
16301;DHT22;8258;51.020;4.248;2024-03-08T02:11:11;3.50;99.90
16301;DHT22;8258;51.020;4.248;2024-03-08T02:13:39;3.50;99.90
16301;DHT22;8258;51.020;4.248;2024-03-08T02:16:06;3.50;99.90
16301;DHT22;8258;51.020;4.248;2024-03-08T02:18:34;3.50;99.90
16301;DHT22;8258;51.020;4.248;2024-03-08T02:21:04;3.50;99.90
16301;DHT22;8258;51.020;4.248;2024-03-08T02:23:32;3.40;99.90
16301;DHT22;8258;51.020;4.248;2024-03-08T02:25:59;3.40;99.90
16301;DHT22;8258;51.020;4.248;2024-03-08T02:28:27;3.40;99.90
16301;DHT22;8258;51.020;4.248;2024-03-08T02:30:54;3.30;99.90
16301;DHT22;8258;51.020;4.248;2024-03-08T02:33:23;3.30;99.90
16301;DHT22;8258;51.020;4.248;2024-03-08T02:35:50;3.20;99.90
16301;DHT22;8258;51.020;4.248;2024-03-08T02:46:24;3.20;99.90
16301;DHT22;8258;51.020;4.248;2024-03-08T03:17:29;2.90;99.90
16301;DHT22;8258;51.020;4.248;2024-03-08T03:19:56;2.90;99.90
16301;DHT22;8258;51.020;4.248;2024-03-08T03:22:23;2.90;99.90
16301;DHT22;8258;51.020;4.248;2024-03-08T03:24:51;2.80;99.90
16301;DHT22;8258;51.020;4.248;2024-03-08T03:27:19;2.80;99.90
16301;DHT22;8258;51.020;4.248;2024-03-08T03:29:46;2.80;99.90
16301;DHT22;8258;51.020;4.248;2024-03-08T03:32:15;2.80;99.90
16301;DHT22;8258;51.020;4.248;2024-03-08T03:34:45;2.80;99.90
16301;DHT22;8258;51.020;4.248;2024-03-08T03:37:12;2.80;99.90
16301;DHT22;8258;51.020;4.248;2024-03-08T03:39:39;2.70;99.90
16301;DHT22;8258;51.020;4.248;2024-03-08T03:42:14;2.70;99.90
16301;DHT22;8258;51.020;4.248;2024-03-08T03:44:43;2.70;99.90
16301;DHT22;8258;51.020;4.248;2024-03-08T03:47:11;2.70;99.90
16301;DHT22;8258;51.020;4.248;2024-03-08T04:28:54;2.30;99.90
16301;DHT22;8258;51.020;4.248;2024-03-08T04:31:21;2.30;99.90
16301;DHT22;8258;51.020;4.248;2024-03-08T04:33:48;2.40;99.90
16301;DHT22;8258;51.020;4.248;2024-03-08T04:36:15;2.40;99.90
16301;DHT22;8258;51.020;4.248;2024-03-08T04:38:42;2.30;99.90
16301;DHT22;8258;51.020;4.248;2024-03-08T04:41:10;2.30;99.90
16301;DHT22;8258;51.020;4.248;2024-03-08T04:43:37;2.30;99.90
16301;DHT22;8258;51.020;4.248;2024-03-08T04:46:06;2.30;99.90
16301;DHT22;8258;51.020;4.248;2024-03-08T04:48:33;2.30;99.90
16301;DHT22;8258;51.020;4.248;2024-03-08T04:51:02;2.20;99.90
16301;DHT22;8258;51.020;4.248;2024-03-08T04:53:29;2.20;99.90
16301;DHT22;8258;51.020;4.248;2024-03-08T04:55:58;2.20;99.90
16301;DHT22;8258;51.020;4.248;2024-03-08T04:58:25;2.20;99.90
16301;DHT22;8258;51.020;4.248;2024-03-08T05:00:53;2.20;99.90
16301;DHT22;8258;51.020;4.248;2024-03-08T05:03:22;2.20;99.90
16301;DHT22;8258;51.020;4.248;2024-03-08T05:05:52;2.20;99.90
16301;DHT22;8258;51.020;4.248;2024-03-08T05:08:19;2.20;99.90
16301;DHT22;8258;51.020;4.248;2024-03-08T05:10:46;2.20;99.90
16301;DHT22;8258;51.020;4.248;2024-03-08T05:13:13;2.20;99.90
16301;DHT22;8258;51.020;4.248;2024-03-08T05:15:42;2.10;99.90
16301;DHT22;8258;51.020;4.248;2024-03-08T05:18:09;2.10;99.90
16301;DHT22;8258;51.020;4.248;2024-03-08T05:20:41;2.10;99.90
16301;DHT22;8258;51.020;4.248;2024-03-08T05:23:08;2.10;99.90
16301;DHT22;8258;51.020;4.248;2024-03-08T05:25:35;2.10;99.90
16301;DHT22;8258;51.020;4.248;2024-03-08T05:28:03;2.10;99.90
16301;DHT22;8258;51.020;4.248;2024-03-08T05:30:30;2.00;99.90
16301;DHT22;8258;51.020;4.248;2024-03-08T05:32:57;2.00;99.90
16301;DHT22;8258;51.020;4.248;2024-03-08T05:35:25;1.90;99.90
16301;DHT22;8258;51.020;4.248;2024-03-08T05:38:15;2.00;99.90
16301;DHT22;8258;51.020;4.248;2024-03-08T06:27:32;1.90;99.90
16301;DHT22;8258;51.020;4.248;2024-03-08T06:30:01;1.90;99.90
16301;DHT22;8258;51.020;4.248;2024-03-08T07:19:06;5.30;99.90
16301;DHT22;8258;51.020;4.248;2024-03-08T07:21:34;5.40;99.90
16301;DHT22;8258;51.020;4.248;2024-03-08T07:24:01;5.60;99.90
16301;DHT22;8258;51.020;4.248;2024-03-08T07:26:50;5.50;99.90
16301;DHT22;8258;51.020;4.248;2024-03-08T07:29:17;5.70;99.90
16301;DHT22;8258;51.020;4.248;2024-03-08T07:31:44;5.60;99.90
16301;DHT22;8258;51.020;4.248;2024-03-08T07:34:22;5.50;99.90
16301;DHT22;8258;51.020;4.248;2024-03-08T07:36:49;5.50;99.90
16301;DHT22;8258;51.020;4.248;2024-03-08T07:39:17;5.70;99.90
16301;DHT22;8258;51.020;4.248;2024-03-08T07:41:44;5.90;99.90
16301;DHT22;8258;51.020;4.248;2024-03-08T07:44:11;6.30;99.90
16301;DHT22;8258;51.020;4.248;2024-03-08T07:46:39;6.70;99.90
16301;DHT22;8258;51.020;4.248;2024-03-08T07:49:07;6.70;99.90
16301;DHT22;8258;51.020;4.248;2024-03-08T07:51:38;6.80;99.90
16301;DHT22;8258;51.020;4.248;2024-03-08T07:54:05;6.90;99.90
16301;DHT22;8258;51.020;4.248;2024-03-08T07:56:34;6.60;99.90
16301;DHT22;8258;51.020;4.248;2024-03-08T07:59:03;6.70;99.90
16301;DHT22;8258;51.020;4.248;2024-03-08T08:01:33;6.90;99.90
16301;DHT22;8258;51.020;4.248;2024-03-08T08:04:00;6.80;99.90
16301;DHT22;8258;51.020;4.248;2024-03-08T08:06:28;7.20;99.90
16301;DHT22;8258;51.020;4.248;2024-03-08T08:08:59;7.10;99.90
16301;DHT22;8258;51.020;4.248;2024-03-08T08:11:26;7.70;99.90
16301;DHT22;8258;51.020;4.248;2024-03-08T08:13:54;7.80;99.90
16301;DHT22;8258;51.020;4.248;2024-03-08T08:16:23;7.90;99.90
16301;DHT22;8258;51.020;4.248;2024-03-08T08:18:51;7.80;99.90
16301;DHT22;8258;51.020;4.248;2024-03-08T08:21:18;7.30;99.90
16301;DHT22;8258;51.020;4.248;2024-03-08T08:23:48;7.30;99.90
16301;DHT22;8258;51.020;4.248;2024-03-08T08:26:16;7.90;99.90
16301;DHT22;8258;51.020;4.248;2024-03-08T08:28:47;8.60;99.90
16301;DHT22;8258;51.020;4.248;2024-03-08T08:31:14;8.90;99.90
16301;DHT22;8258;51.020;4.248;2024-03-08T08:33:42;8.60;99.90
16301;DHT22;8258;51.020;4.248;2024-03-08T08:36:09;9.10;99.90
16301;DHT22;8258;51.020;4.248;2024-03-08T08:38:36;9.20;99.90
16301;DHT22;8258;51.020;4.248;2024-03-08T08:41:04;8.80;99.90
16301;DHT22;8258;51.020;4.248;2024-03-08T08:43:33;9.40;99.90
16301;DHT22;8258;51.020;4.248;2024-03-08T08:46:00;9.80;99.90
16301;DHT22;8258;51.020;4.248;2024-03-08T08:48:27;9.50;99.90
16301;DHT22;8258;51.020;4.248;2024-03-08T08:50:55;9.50;99.90
16301;DHT22;8258;51.020;4.248;2024-03-08T08:53:22;10.00;99.90
16301;DHT22;8258;51.020;4.248;2024-03-08T08:55:49;9.90;99.90
16301;DHT22;8258;51.020;4.248;2024-03-08T08:58:16;9.80;99.90
16301;DHT22;8258;51.020;4.248;2024-03-08T09:00:45;9.90;99.90
16301;DHT22;8258;51.020;4.248;2024-03-08T09:03:12;9.90;99.90
16301;DHT22;8258;51.020;4.248;2024-03-08T09:05:39;10.30;99.90
16301;DHT22;8258;51.020;4.248;2024-03-08T09:08:08;10.30;99.90
16301;DHT22;8258;51.020;4.248;2024-03-08T09:10:35;9.70;99.90
16301;DHT22;8258;51.020;4.248;2024-03-08T09:13:02;9.90;99.90
16301;DHT22;8258;51.020;4.248;2024-03-08T09:15:30;9.70;99.90
16301;DHT22;8258;51.020;4.248;2024-03-08T09:17:58;10.00;99.90
16301;DHT22;8258;51.020;4.248;2024-03-08T09:20:25;10.30;99.90
16301;DHT22;8258;51.020;4.248;2024-03-08T09:22:52;9.80;99.90
16301;DHT22;8258;51.020;4.248;2024-03-08T09:25:19;10.50;99.90
16301;DHT22;8258;51.020;4.248;2024-03-08T09:27:46;10.90;99.90
16301;DHT22;8258;51.020;4.248;2024-03-08T09:30:14;11.10;99.90
16301;DHT22;8258;51.020;4.248;2024-03-08T09:32:41;11.10;99.90
16301;DHT22;8258;51.020;4.248;2024-03-08T09:35:10;10.90;99.90
16301;DHT22;8258;51.020;4.248;2024-03-08T09:37:37;11.80;99.90
16301;DHT22;8258;51.020;4.248;2024-03-08T09:40:05;12.20;99.90
16301;DHT22;8258;51.020;4.248;2024-03-08T09:42:35;11.60;99.90
16301;DHT22;8258;51.020;4.248;2024-03-08T09:45:05;10.80;99.90
16301;DHT22;8258;51.020;4.248;2024-03-08T09:47:37;11.10;99.90
16301;DHT22;8258;51.020;4.248;2024-03-08T09:50:07;10.90;99.90
16301;DHT22;8258;51.020;4.248;2024-03-08T09:52:37;11.00;99.90
16301;DHT22;8258;51.020;4.248;2024-03-08T09:55:05;11.60;99.90
16301;DHT22;8258;51.020;4.248;2024-03-08T09:57:33;11.20;99.90
16301;DHT22;8258;51.020;4.248;2024-03-08T10:00:04;11.30;99.90
16301;DHT22;8258;51.020;4.248;2024-03-08T10:02:45;11.60;99.90
16301;DHT22;8258;51.020;4.248;2024-03-08T10:05:12;12.40;99.90
16301;DHT22;8258;51.020;4.248;2024-03-08T10:07:41;12.60;99.20
16301;DHT22;8258;51.020;4.248;2024-03-08T10:10:08;12.60;99.40
16301;DHT22;8258;51.020;4.248;2024-03-08T10:12:37;12.60;98.10
16301;DHT22;8258;51.020;4.248;2024-03-08T10:15:06;12.50;97.20
16301;DHT22;8258;51.020;4.248;2024-03-08T10:17:34;12.70;97.10
16301;DHT22;8258;51.020;4.248;2024-03-08T10:20:02;12.70;97.30
16301;DHT22;8258;51.020;4.248;2024-03-08T10:22:42;13.30;97.70
16301;DHT22;8258;51.020;4.248;2024-03-08T10:25:10;13.70;93.80
16301;DHT22;8258;51.020;4.248;2024-03-08T10:27:38;13.50;94.40
16301;DHT22;8258;51.020;4.248;2024-03-08T10:30:10;12.80;94.70
16301;DHT22;8258;51.020;4.248;2024-03-08T10:32:38;12.50;96.10
16301;DHT22;8258;51.020;4.248;2024-03-08T10:35:07;12.30;95.30
16301;DHT22;8258;51.020;4.248;2024-03-08T10:37:40;12.40;96.70
16301;DHT22;8258;51.020;4.248;2024-03-08T10:40:15;12.50;95.30
16301;DHT22;8258;51.020;4.248;2024-03-08T10:42:51;12.90;95.20
16301;DHT22;8258;51.020;4.248;2024-03-08T10:45:27;12.90;94.40
16301;DHT22;8258;51.020;4.248;2024-03-08T10:48:17;13.00;94.20
16301;DHT22;8258;51.020;4.248;2024-03-08T10:50:49;13.20;93.90
16301;DHT22;8258;51.020;4.248;2024-03-08T10:53:18;13.50;92.10
16301;DHT22;8258;51.020;4.248;2024-03-08T10:55:49;13.00;93.80
16301;DHT22;8258;51.020;4.248;2024-03-08T10:58:19;13.10;93.20
16301;DHT22;8258;51.020;4.248;2024-03-08T11:00:47;13.60;94.00
16301;DHT22;8258;51.020;4.248;2024-03-08T11:03:48;14.40;91.00
16301;DHT22;8258;51.020;4.248;2024-03-08T11:06:22;13.70;90.70
16301;DHT22;8258;51.020;4.248;2024-03-08T11:08:49;13.40;91.80
16301;DHT22;8258;51.020;4.248;2024-03-08T11:11:29;13.20;91.40
16301;DHT22;8258;51.020;4.248;2024-03-08T11:14:00;13.90;92.30
16301;DHT22;8258;51.020;4.248;2024-03-08T11:16:38;14.40;90.70
16301;DHT22;8258;51.020;4.248;2024-03-08T11:19:25;14.60;87.30
16301;DHT22;8258;51.020;4.248;2024-03-08T11:22:01;15.20;83.20
16301;DHT22;8258;51.020;4.248;2024-03-08T11:24:37;15.00;83.40
16301;DHT22;8258;51.020;4.248;2024-03-08T11:27:08;15.00;82.00
16301;DHT22;8258;51.020;4.248;2024-03-08T11:29:37;15.60;79.20
16301;DHT22;8258;51.020;4.248;2024-03-08T11:32:09;16.50;74.60
16301;DHT22;8258;51.020;4.248;2024-03-08T11:34:36;15.30;69.50
16301;DHT22;8258;51.020;4.248;2024-03-08T11:37:04;14.70;77.50
16301;DHT22;8258;51.020;4.248;2024-03-08T11:39:35;15.10;74.70
16301;DHT22;8258;51.020;4.248;2024-03-08T11:42:04;15.40;74.20
16301;DHT22;8258;51.020;4.248;2024-03-08T11:44:33;15.90;73.20
16301;DHT22;8258;51.020;4.248;2024-03-08T11:47:01;15.20;70.90
16301;DHT22;8258;51.020;4.248;2024-03-08T11:49:32;15.30;69.90
16301;DHT22;8258;51.020;4.248;2024-03-08T11:52:00;15.20;73.10
16301;DHT22;8258;51.020;4.248;2024-03-08T11:54:27;15.00;72.10
16301;DHT22;8258;51.020;4.248;2024-03-08T11:56:56;15.20;70.60
16301;DHT22;8258;51.020;4.248;2024-03-08T11:59:27;15.10;70.30
16301;DHT22;8258;51.020;4.248;2024-03-08T12:02:01;15.00;71.30
16301;DHT22;8258;51.020;4.248;2024-03-08T12:04:29;14.90;70.70
16301;DHT22;8258;51.020;4.248;2024-03-08T12:06:59;15.10;70.50
16301;DHT22;8258;51.020;4.248;2024-03-08T12:09:34;14.80;74.50
16301;DHT22;8258;51.020;4.248;2024-03-08T12:12:06;15.10;74.50
16301;DHT22;8258;51.020;4.248;2024-03-08T12:14:34;15.30;74.70
16301;DHT22;8258;51.020;4.248;2024-03-08T12:17:04;15.70;74.40
16301;DHT22;8258;51.020;4.248;2024-03-08T12:19:31;16.40;64.60
16301;DHT22;8258;51.020;4.248;2024-03-08T12:22:08;15.70;67.00
16301;DHT22;8258;51.020;4.248;2024-03-08T12:24:38;15.70;68.20
16301;DHT22;8258;51.020;4.248;2024-03-08T12:27:18;15.50;68.00
16301;DHT22;8258;51.020;4.248;2024-03-08T12:29:45;15.50;68.70
16301;DHT22;8258;51.020;4.248;2024-03-08T12:32:15;15.90;70.10
16301;DHT22;8258;51.020;4.248;2024-03-08T12:34:42;16.30;62.70
16301;DHT22;8258;51.020;4.248;2024-03-08T12:37:11;16.40;63.20
16301;DHT22;8258;51.020;4.248;2024-03-08T12:39:42;16.10;62.50
16301;DHT22;8258;51.020;4.248;2024-03-08T12:42:11;15.70;65.00
16301;DHT22;8258;51.020;4.248;2024-03-08T12:44:38;16.10;67.50
16301;DHT22;8258;51.020;4.248;2024-03-08T12:47:09;16.50;60.30
16301;DHT22;8258;51.020;4.248;2024-03-08T12:49:37;16.20;61.60
16301;DHT22;8258;51.020;4.248;2024-03-08T12:52:09;16.40;61.20
16301;DHT22;8258;51.020;4.248;2024-03-08T12:54:37;17.00;58.50
16301;DHT22;8258;51.020;4.248;2024-03-08T12:57:06;17.20;58.60
16301;DHT22;8258;51.020;4.248;2024-03-08T12:59:33;16.60;59.00
16301;DHT22;8258;51.020;4.248;2024-03-08T13:02:00;17.50;57.20
16301;DHT22;8258;51.020;4.248;2024-03-08T13:04:28;17.40;51.90
16301;DHT22;8258;51.020;4.248;2024-03-08T13:07:01;16.40;55.70
16301;DHT22;8258;51.020;4.248;2024-03-08T13:09:36;16.30;56.30
16301;DHT22;8258;51.020;4.248;2024-03-08T13:12:04;17.10;54.60
16301;DHT22;8258;51.020;4.248;2024-03-08T13:14:32;17.10;52.60
16301;DHT22;8258;51.020;4.248;2024-03-08T13:17:01;16.90;53.40
16301;DHT22;8258;51.020;4.248;2024-03-08T13:19:29;16.90;54.60
16301;DHT22;8258;51.020;4.248;2024-03-08T13:21:56;17.50;53.90
16301;DHT22;8258;51.020;4.248;2024-03-08T13:24:25;17.10;51.40
16301;DHT22;8258;51.020;4.248;2024-03-08T13:26:52;16.80;53.00
16301;DHT22;8258;51.020;4.248;2024-03-08T13:29:20;17.50;50.90
16301;DHT22;8258;51.020;4.248;2024-03-08T13:31:48;16.60;53.60
16301;DHT22;8258;51.020;4.248;2024-03-08T13:34:17;17.00;52.10
16301;DHT22;8258;51.020;4.248;2024-03-08T13:36:45;16.40;52.70
16301;DHT22;8258;51.020;4.248;2024-03-08T13:39:12;16.50;54.50
16301;DHT22;8258;51.020;4.248;2024-03-08T13:41:43;17.20;52.90
16301;DHT22;8258;51.020;4.248;2024-03-08T13:44:11;17.70;51.20
16301;DHT22;8258;51.020;4.248;2024-03-08T13:46:38;18.50;50.50
16301;DHT22;8258;51.020;4.248;2024-03-08T13:49:05;18.00;47.40
16301;DHT22;8258;51.020;4.248;2024-03-08T13:51:33;17.40;47.40
16301;DHT22;8258;51.020;4.248;2024-03-08T13:54:01;17.70;49.60
16301;DHT22;8258;51.020;4.248;2024-03-08T13:56:32;18.30;49.80
16301;DHT22;8258;51.020;4.248;2024-03-08T13:59:01;19.50;45.60
16301;DHT22;8258;51.020;4.248;2024-03-08T14:01:28;19.90;41.20
16301;DHT22;8258;51.020;4.248;2024-03-08T14:03:56;19.60;40.70
16301;DHT22;8258;51.020;4.248;2024-03-08T14:06:25;19.90;39.90
16301;DHT22;8258;51.020;4.248;2024-03-08T14:08:52;19.30;37.20
16301;DHT22;8258;51.020;4.248;2024-03-08T14:11:22;18.80;37.70
16301;DHT22;8258;51.020;4.248;2024-03-08T14:13:49;17.40;40.90
16301;DHT22;8258;51.020;4.248;2024-03-08T14:16:19;17.20;44.10
16301;DHT22;8258;51.020;4.248;2024-03-08T14:18:46;17.00;42.70
16301;DHT22;8258;51.020;4.248;2024-03-08T14:21:13;17.30;43.50
16301;DHT22;8258;51.020;4.248;2024-03-08T14:23:41;18.10;42.90
16301;DHT22;8258;51.020;4.248;2024-03-08T14:26:09;18.30;43.00
16301;DHT22;8258;51.020;4.248;2024-03-08T14:28:38;18.60;40.00
16301;DHT22;8258;51.020;4.248;2024-03-08T14:31:06;19.10;41.40
16301;DHT22;8258;51.020;4.248;2024-03-08T14:33:38;19.20;41.20
16301;DHT22;8258;51.020;4.248;2024-03-08T14:36:08;20.00;37.50
16301;DHT22;8258;51.020;4.248;2024-03-08T14:38:39;19.50;33.60
16301;DHT22;8258;51.020;4.248;2024-03-08T14:41:06;18.90;36.80
16301;DHT22;8258;51.020;4.248;2024-03-08T14:43:34;19.30;35.80
16301;DHT22;8258;51.020;4.248;2024-03-08T14:46:01;19.30;34.90
16301;DHT22;8258;51.020;4.248;2024-03-08T14:48:29;18.70;37.10
16301;DHT22;8258;51.020;4.248;2024-03-08T14:50:57;19.10;34.00
16301;DHT22;8258;51.020;4.248;2024-03-08T14:53:24;19.80;35.80
16301;DHT22;8258;51.020;4.248;2024-03-08T14:55:53;19.80;33.80
16301;DHT22;8258;51.020;4.248;2024-03-08T14:58:20;20.00;34.30
16301;DHT22;8258;51.020;4.248;2024-03-08T15:00:50;20.80;30.50
16301;DHT22;8258;51.020;4.248;2024-03-08T15:03:20;20.80;29.60
16301;DHT22;8258;51.020;4.248;2024-03-08T15:05:52;21.10;27.00
16301;DHT22;8258;51.020;4.248;2024-03-08T15:08:20;20.00;29.90
16301;DHT22;8258;51.020;4.248;2024-03-08T15:10:50;20.20;30.20
16301;DHT22;8258;51.020;4.248;2024-03-08T15:13:20;21.00;26.40
16301;DHT22;8258;51.020;4.248;2024-03-08T15:15:49;20.90;27.00
16301;DHT22;8258;51.020;4.248;2024-03-08T15:18:21;20.90;26.20
16301;DHT22;8258;51.020;4.248;2024-03-08T15:20:51;20.70;26.80
16301;DHT22;8258;51.020;4.248;2024-03-08T15:23:22;20.30;27.10
16301;DHT22;8258;51.020;4.248;2024-03-08T15:25:50;20.70;27.00
16301;DHT22;8258;51.020;4.248;2024-03-08T15:36:04;20.10;24.30
16301;DHT22;8258;51.020;4.248;2024-03-08T15:38:36;19.20;27.30
16301;DHT22;8258;51.020;4.248;2024-03-08T15:41:04;19.80;25.80
16301;DHT22;8258;51.020;4.248;2024-03-08T15:43:35;19.90;26.20
16301;DHT22;8258;51.020;4.248;2024-03-08T15:46:03;19.60;26.70
16301;DHT22;8258;51.020;4.248;2024-03-08T15:48:31;18.90;28.90
16301;DHT22;8258;51.020;4.248;2024-03-08T15:51:00;19.10;29.60
16301;DHT22;8258;51.020;4.248;2024-03-08T15:53:30;19.20;28.20
16301;DHT22;8258;51.020;4.248;2024-03-08T15:55:59;19.00;27.90
16301;DHT22;8258;51.020;4.248;2024-03-08T15:58:26;18.50;29.10
16301;DHT22;8258;51.020;4.248;2024-03-08T16:00:53;18.10;29.80
16301;DHT22;8258;51.020;4.248;2024-03-08T16:03:22;18.10;31.40
16301;DHT22;8258;51.020;4.248;2024-03-08T16:05:49;17.60;33.10
16301;DHT22;8258;51.020;4.248;2024-03-08T16:08:18;16.30;36.20
16301;DHT22;8258;51.020;4.248;2024-03-08T16:10:47;16.20;41.40
16301;DHT22;8258;51.020;4.248;2024-03-08T16:13:21;16.10;40.40
16301;DHT22;8258;51.020;4.248;2024-03-08T16:15:49;16.00;42.60
16301;DHT22;8258;51.020;4.248;2024-03-08T16:18:19;16.10;45.00
16301;DHT22;8258;51.020;4.248;2024-03-08T16:20:52;16.20;47.20
16301;DHT22;8258;51.020;4.248;2024-03-08T16:23:21;16.10;46.20
16301;DHT22;8258;51.020;4.248;2024-03-08T16:25:49;15.90;48.60
16301;DHT22;8258;51.020;4.248;2024-03-08T16:28:20;15.50;49.40
16301;DHT22;8258;51.020;4.248;2024-03-08T16:30:51;15.30;52.60
16301;DHT22;8258;51.020;4.248;2024-03-08T16:33:20;15.00;52.80
16301;DHT22;8258;51.020;4.248;2024-03-08T16:35:48;14.60;55.90
16301;DHT22;8258;51.020;4.248;2024-03-08T16:38:16;14.50;57.90
16301;DHT22;8258;51.020;4.248;2024-03-08T16:40:44;14.50;59.60
16301;DHT22;8258;51.020;4.248;2024-03-08T16:43:12;14.70;60.50
16301;DHT22;8258;51.020;4.248;2024-03-08T16:45:42;14.30;61.50
16301;DHT22;8258;51.020;4.248;2024-03-08T16:48:10;13.90;69.00
16301;DHT22;8258;51.020;4.248;2024-03-08T16:50:37;13.50;73.60
16301;DHT22;8258;51.020;4.248;2024-03-08T16:53:07;13.50;80.50
16301;DHT22;8258;51.020;4.248;2024-03-08T16:55:34;13.30;79.30
16301;DHT22;8258;51.020;4.248;2024-03-08T16:58:03;13.00;81.40
16301;DHT22;8258;51.020;4.248;2024-03-08T17:00:36;12.70;88.20
16301;DHT22;8258;51.020;4.248;2024-03-08T17:03:06;12.60;90.50
16301;DHT22;8258;51.020;4.248;2024-03-08T17:05:33;12.40;91.20
16301;DHT22;8258;51.020;4.248;2024-03-08T17:08:02;12.30;93.30
16301;DHT22;8258;51.020;4.248;2024-03-08T17:10:33;12.20;93.90
16301;DHT22;8258;51.020;4.248;2024-03-08T17:13:06;12.10;94.60
16301;DHT22;8258;51.020;4.248;2024-03-08T17:15:34;12.00;95.50
16301;DHT22;8258;51.020;4.248;2024-03-08T17:18:26;11.80;97.00
16301;DHT22;8258;51.020;4.248;2024-03-08T17:20:57;11.70;97.50
16301;DHT22;8258;51.020;4.248;2024-03-08T17:23:26;11.60;97.50
16301;DHT22;8258;51.020;4.248;2024-03-08T17:25:53;11.60;98.60
16301;DHT22;8258;51.020;4.248;2024-03-08T17:28:23;11.40;98.90
16301;DHT22;8258;51.020;4.248;2024-03-08T17:30:53;11.40;99.70
16301;DHT22;8258;51.020;4.248;2024-03-08T17:33:20;11.30;99.80
16301;DHT22;8258;51.020;4.248;2024-03-08T17:35:51;11.30;99.90
16301;DHT22;8258;51.020;4.248;2024-03-08T17:38:20;11.20;99.90
16301;DHT22;8258;51.020;4.248;2024-03-08T17:40:50;11.00;99.90
16301;DHT22;8258;51.020;4.248;2024-03-08T17:43:17;10.90;99.90
16301;DHT22;8258;51.020;4.248;2024-03-08T17:45:50;10.80;99.90
16301;DHT22;8258;51.020;4.248;2024-03-08T17:48:18;10.80;99.90
16301;DHT22;8258;51.020;4.248;2024-03-08T17:50:48;10.70;99.90
16301;DHT22;8258;51.020;4.248;2024-03-08T17:53:17;10.60;99.90
16301;DHT22;8258;51.020;4.248;2024-03-08T17:55:45;10.50;99.90
16301;DHT22;8258;51.020;4.248;2024-03-08T17:58:16;10.40;99.90
16301;DHT22;8258;51.020;4.248;2024-03-08T18:00:49;10.40;99.90
16301;DHT22;8258;51.020;4.248;2024-03-08T18:03:20;10.30;99.90
16301;DHT22;8258;51.020;4.248;2024-03-08T18:05:53;10.30;99.90
16301;DHT22;8258;51.020;4.248;2024-03-08T18:08:28;10.30;99.90
16301;DHT22;8258;51.020;4.248;2024-03-08T18:21:19;10.00;99.90
16301;DHT22;8258;51.020;4.248;2024-03-08T18:23:50;10.10;99.90
16301;DHT22;8258;51.020;4.248;2024-03-08T18:26:28;10.00;99.90
16301;DHT22;8258;51.020;4.248;2024-03-08T18:29:03;9.80;99.90
16301;DHT22;8258;51.020;4.248;2024-03-08T18:31:58;9.80;99.90
16301;DHT22;8258;51.020;4.248;2024-03-08T18:34:31;9.80;99.90
16301;DHT22;8258;51.020;4.248;2024-03-08T18:37:24;9.70;99.90
16301;DHT22;8258;51.020;4.248;2024-03-08T18:40:10;9.60;99.90
16301;DHT22;8258;51.020;4.248;2024-03-08T18:42:42;9.60;99.90
16301;DHT22;8258;51.020;4.248;2024-03-08T18:45:25;9.50;99.90
16301;DHT22;8258;51.020;4.248;2024-03-08T18:50:33;9.50;99.90
16301;DHT22;8258;51.020;4.248;2024-03-08T18:53:03;9.50;99.90
16301;DHT22;8258;51.020;4.248;2024-03-08T18:55:39;9.30;99.90
16301;DHT22;8258;51.020;4.248;2024-03-08T18:58:09;9.30;99.90
16301;DHT22;8258;51.020;4.248;2024-03-08T19:00:36;9.20;99.90
16301;DHT22;8258;51.020;4.248;2024-03-08T19:03:06;9.10;99.90
16301;DHT22;8258;51.020;4.248;2024-03-08T19:05:35;9.10;99.90
16301;DHT22;8258;51.020;4.248;2024-03-08T19:08:03;9.10;99.90
16301;DHT22;8258;51.020;4.248;2024-03-08T19:10:35;9.10;99.90
16301;DHT22;8258;51.020;4.248;2024-03-08T19:13:04;9.00;99.90
16301;DHT22;8258;51.020;4.248;2024-03-08T19:15:31;9.00;99.90
16301;DHT22;8258;51.020;4.248;2024-03-08T19:18:00;8.90;99.90
16301;DHT22;8258;51.020;4.248;2024-03-08T19:20:29;8.90;99.90
16301;DHT22;8258;51.020;4.248;2024-03-08T19:22:59;8.90;99.90
16301;DHT22;8258;51.020;4.248;2024-03-08T19:25:28;8.80;99.90
16301;DHT22;8258;51.020;4.248;2024-03-08T19:28:00;8.80;99.90
16301;DHT22;8258;51.020;4.248;2024-03-08T19:30:28;8.80;99.90
16301;DHT22;8258;51.020;4.248;2024-03-08T19:32:57;8.70;99.90
16301;DHT22;8258;51.020;4.248;2024-03-08T19:35:25;8.70;99.90
16301;DHT22;8258;51.020;4.248;2024-03-08T19:37:54;8.60;99.90
16301;DHT22;8258;51.020;4.248;2024-03-08T19:40:22;8.60;99.90
16301;DHT22;8258;51.020;4.248;2024-03-08T19:42:51;8.70;99.90
16301;DHT22;8258;51.020;4.248;2024-03-08T19:45:20;8.70;99.90
16301;DHT22;8258;51.020;4.248;2024-03-08T19:47:50;8.70;99.90